Latest Coastal Weather Observations for Warrnambool

IDV60701

Issued at 10:21 pm EDT Saturday 13 February 2016 (issued every 10 minutes, with the page automatically refreshed every 10 minutes)

About coastal observations | Map of coastal stations | Coastal observations for VIC | Marine services | Other Formats
Station Details ID: 090186 Name: WARRNAMBOOL AIRPORT NDB Lat: -38.29 Lon: 142.45 Height: 70.8 m
Data from the previous 72 hours. | See also: Recent months at Warrnambool
Date/Time
EDT
Temp

°C
Wind Pressure Rain
since 9am
mm
Weather Cloud Vis
km
Sea
Height
m
Swell
Dir
 
Speed
knots
Gust
knots
hPa Trend Height
m
Period
s
Dir
13/10:00pm 17.7 WSW 11 15 1011.3 - 0.0 - Partly cloudy 10 - - - -
13/09:30pm 17.8 WSW 13 17 1011.0 - 0.0 - Partly cloudy 10 - - - -
13/09:00pm 17.9 WSW 11 16 1010.5 - 0.0 - Mostly cloudy 10 - - - -
13/08:30pm 18.1 WSW 15 21 1009.9 - 0.0 - Partly cloudy 10 - - - -
13/08:00pm 18.0 WSW 21 26 1009.7 - 0.0 - Partly cloudy 10 - - - -
13/07:39pm 18.3 WSW 18 23 1009.4 - 0.0 - Partly cloudy 10 - - - -
13/07:30pm 18.2 WSW 18 23 1009.3 - 0.0 - Cloudy 10 - - - -
13/07:20pm 18.2 SW 20 26 1009.2 - 0.0 - Partly cloudy 10 - - - -
13/07:00pm 19.9 WSW 20 26 1008.8 - 0.0 - Partly cloudy 10 - - - -
13/06:30pm 20.8 SW 19 25 1008.7 - 0.0 - - 10 - - - -
13/06:00pm 20.7 SW 21 28 1008.5 - 0.0 - Mostly clear 10 - - - -
13/05:30pm 20.6 SW 22 27 1008.4 - 0.0 - Partly cloudy 10 - - - -
13/05:00pm 22.4 SW 23 30 1008.1 - 0.0 - - 10 - - - -
13/04:30pm 23.7 SW 21 26 1008.0 - 0.0 - - 10 - - - -
13/04:00pm 23.7 SW 23 27 1008.1 - 0.0 - Partly cloudy 10 - - - -
13/03:41pm 25.7 SSW 19 25 1008.0 - 0.0 - Partly cloudy 10 - - - -
13/03:30pm 25.9 WSW 15 20 1008.2 - 0.0 - - 10 - - - -
13/03:00pm 24.3 SSW 19 24 1008.5 - 0.0 - - 10 - - - -
13/02:30pm 24.2 SW 20 24 1008.7 - 0.0 - - 10 - - - -
13/02:00pm 24.0 SW 19 24 1008.8 - 0.0 - - 10 - - - -
13/01:30pm 23.5 SW 20 25 1008.9 - 0.0 - - 10 - - - -
13/01:00pm 23.3 SW 19 23 1009.0 - 0.0 - - 10 - - - -
13/12:30pm 23.9 SSW 16 22 1008.8 - 0.0 - - 10 - - - -
13/12:00pm 24.1 SW 11 16 1009.2 - 0.0 - - 10 - - - -
13/11:30am 23.4 WNW 9 14 1009.3 - 0.0 - - 10 - - - -
13/11:00am 22.7 WNW 7 13 1009.4 - 0.0 - - 10 - - - -
13/10:30am 21.2 W 7 11 1009.6 - 0.0 - Partly cloudy 10 - - - -
13/10:00am 19.9 W 9 13 1010.0 - 0.0 - Partly cloudy 10 - - - -
13/09:30am 19.0 W 11 15 1010.0 - 0.0 - Partly cloudy 10 - - - -
13/09:27am 18.9 W 11 15 1010.0 - 0.0 - Partly cloudy 10 - - - -
13/09:10am 18.4 W 11 14 1010.0 - 0.0 - Partly cloudy 10 - - - -
13/09:00am 17.8 W 11 14 1009.9 - 0.0 - Cloudy 10 - - - -
13/08:30am 17.1 WNW 10 13 1009.7 - 0.0 - - 10 - - - -
13/08:00am 15.9 NW 6 8 1009.2 - 0.0 - - 10 - - - -
13/07:30am 14.5 NW 6 8 1008.9 - 0.0 - - 10 - - - -
13/07:00am 14.4 NW 7 8 1008.9 - 0.0 - - 10 - - - -
13/06:30am 13.8 NW 7 8 1008.7 - 0.0 - - 10 - - - -
13/06:00am 13.3 NW 5 6 1008.6 - 0.0 - Mostly cloudy 10 - - - -
13/05:30am 12.8 N 4 5 1008.3 - 0.0 - - 10 - - - -
13/05:00am 12.9 N 6 8 1008.1 - 0.0 - - 10 - - - -
13/04:30am 12.2 N 6 7 1008.3 - 0.0 - - 10 - - - -
13/04:00am 11.9 N 5 7 1008.5 - 0.0 - - 10 - - - -
13/03:30am 11.7 N 6 8 1008.5 - 0.0 - - 10 - - - -
13/03:00am 11.4 N 4 5 1009.1 - 0.0 - - 10 - - - -
13/02:30am 12.1 WNW 3 5 1009.4 - 0.0 - - 10 - - - -
13/02:00am 11.9 NNW 4 5 1009.5 - 0.0 - - 10 - - - -
13/01:30am 12.7 N 5 5 1009.6 - 0.0 - - 10 - - - -
13/01:00am 12.9 N 6 7 1009.7 - 0.0 - - 10 - - - -
13/12:30am 12.9 N 5 6 1009.7 - 0.0 - - 10 - - - -
13/12:00am 13.1 N 6 7 1010.1 - 0.0 - - 10 - - - -
 
Date/Time
EDT
Temp

°C
Wind Pressure Rain
since 9am
mm
Weather Cloud Vis
km
Sea
Height
m
Swell
Dir
 
Speed
knots
Gust
knots
hPa Trend Height
m
Period
s
Dir
12/11:30pm 12.1 NNW 5 7 1010.7 - 0.0 - - 10 - - - -
12/11:00pm 12.4 NW 4 4 1011.1 - 0.0 - - 10 - - - -
12/10:30pm 13.0 WSW 6 7 1012.0 - 0.0 - - 10 - - - -
12/10:00pm 14.4 S 4 4 1011.6 - 0.0 - - 10 - - - -
12/09:30pm 15.7 SE 6 7 1011.3 - 0.0 - - 10 - - - -
12/09:00pm 16.3 SSE 7 8 1011.4 - 0.0 - - 10 - - - -
12/08:30pm 17.3 SSE 10 12 1011.6 - 0.0 - - 10 - - - -
12/08:00pm 18.6 S 13 16 1011.5 - 0.0 - - 10 - - - -
12/07:30pm 19.8 S 13 17 1011.3 - 0.0 - - 10 - - - -
12/07:00pm 20.6 S 14 17 1011.4 - 0.0 - - 10 - - - -
12/06:30pm 21.4 SSE 13 15 1011.4 - 0.0 - - 10 - - - -
12/06:00pm 21.4 SSE 16 19 1011.8 - 0.0 - - 10 - - - -
12/05:30pm 21.0 SSE 15 18 1011.9 - 0.0 - - 10 - - - -
12/05:00pm 21.9 SSE 16 19 1012.2 - 0.0 - - 10 - - - -
12/04:30pm 21.7 SSE 15 19 1012.6 - 0.0 - - 10 - - - -
12/04:00pm 23.2 SSE 15 19 1012.9 - 0.0 - - 10 - - - -
12/03:30pm 23.7 S 15 20 1013.1 - 0.0 - - 10 - - - -
12/03:00pm 24.4 SSE 13 18 1013.4 - 0.0 - - 10 - - - -
12/02:30pm 23.6 SE 11 15 1013.7 - 0.0 - - 10 - - - -
12/02:00pm 23.2 SSE 12 15 1014.1 - 0.0 - - 10 - - - -
12/01:30pm 24.1 SSE 11 16 1014.4 - 0.0 - - 10 - - - -
12/01:00pm 23.1 SE 9 15 1014.6 - 0.0 - - 10 - - - -
12/12:30pm 21.8 SSE 9 14 1015.3 - 0.0 - - 10 - - - -
12/12:00pm 22.4 SSE 11 17 1015.8 - 0.0 - Mostly clear 10 - - - -
12/11:30am 21.7 SSE 10 15 1016.0 - 0.0 - Partly cloudy 10 - - - -
12/11:00am 21.6 ESE 8 11 1016.1 - 0.0 - Partly cloudy 10 - - - -
12/10:30am 20.5 ESE 7 10 1016.3 - 0.0 - Partly cloudy 10 - - - -
12/10:00am 19.2 E 6 9 1016.6 - 0.0 - Partly cloudy 10 - - - -
12/09:30am 19.4 E 5 8 1016.7 - 0.0 - - 10 - - - -
12/09:00am 17.7 ESE 6 7 1016.7 - 0.0 - - 10 - - - -
12/08:30am 15.5 E 4 6 1016.7 - 0.0 - - 10 - - - -
12/08:00am 13.6 E 1 4 1016.7 - 0.0 - - 10 - - - -
12/07:30am 10.9 CALM 0 0 1016.6 - 0.0 - - 10 - - - -
12/07:00am 10.5 ENE 1 5 1016.4 - 0.0 - - 10 - - - -
12/06:30am 11.6 NE 3 5 1016.2 - 0.0 - Partly cloudy 10 - - - -
12/06:00am 12.4 E 4 5 1016.1 - 0.0 Rain Mostly clear 10 - - - -
12/05:36am 12.0 ENE 4 5 1016.2 - 0.0 - Partly cloudy 10 - - - -
12/05:30am 11.4 ENE 3 5 1016.1 - 0.0 - Partly cloudy 10 - - - -
12/05:14am 9.9 E 1 3 1016.2 - 0.0 - Partly cloudy 5 - - - -
12/05:00am 11.1 CALM 0 0 1016.4 - 0.0 - - 10 - - - -
12/04:44am 11.9 E 3 3 1016.3 - 0.0 - - 10 - - - -
12/04:31am 11.0 E 2 4 1016.6 - 0.0 - - 5 - - - -
12/04:30am 11.0 E 1 4 1016.6 - 0.0 - - 6 - - - -
12/04:00am 12.8 CALM 0 0 1016.7 - 0.0 - - 10 - - - -
12/03:30am 12.8 ESE 1 4 1016.7 - 0.0 - - 10 - - - -
12/03:00am 12.5 SE 4 5 1017.1 - 0.0 - - 10 - - - -
12/02:30am 12.9 SE 3 4 1017.3 - 0.0 - - 10 - - - -
12/02:00am 13.4 SE 4 5 1017.5 - 0.0 - - 10 - - - -
12/01:30am 13.7 SE 4 5 1017.8 - 0.0 - Partly cloudy 10 - - - -
12/01:00am 14.0 SE 4 5 1017.9 - 0.0 - Partly cloudy 10 - - - -
12/12:30am 14.3 SE 4 5 1018.0 - 0.0 - Partly cloudy 10 - - - -
12/12:00am 14.7 SE 5 6 1018.2 - 0.0 - Cloudy 10 - - - -
 
Date/Time
EDT
Temp

°C
Wind Pressure Rain
since 9am
mm
Weather Cloud Vis
km
Sea
Height
m
Swell
Dir
 
Speed
knots
Gust
knots
hPa Trend Height
m
Period
s
Dir
11/11:30pm 15.1 SE 6 7 1018.3 - 0.0 - - 10 - - - -
11/11:00pm 15.4 SE 6 7 1018.4 - 0.0 - - 10 - - - -
11/10:30pm 15.9 SE 7 9 1018.3 - 0.0 - - 10 - - - -
11/10:00pm 16.1 SE 8 10 1018.2 - 0.0 - - 10 - - - -
11/09:30pm 16.3 SE 8 11 1018.1 - 0.0 - Partly cloudy 10 - - - -
11/09:00pm 16.9 SE 10 15 1017.9 - 0.0 - - 10 - - - -
11/08:30pm 17.3 SSE 12 16 1017.7 - 0.0 - - 10 - - - -
11/08:00pm 17.9 SSE 15 19 1017.4 - 0.0 - - 10 - - - -
11/07:30pm 18.5 SSE 15 22 1017.4 - 0.0 - - 10 - - - -
11/07:00pm 19.0 SSE 18 22 1017.0 - 0.0 - - 10 - - - -
11/06:30pm 19.8 SSE 16 21 1016.5 - 0.0 - - 10 - - - -
11/06:00pm 20.5 SSE 16 21 1016.1 - 0.0 - Mostly clear 10 - - - -
11/05:30pm 21.7 SSE 17 23 1016.5 - 0.0 - Partly cloudy 10 - - - -
11/05:00pm 22.1 SSE 17 22 1016.6 - 0.0 - - 10 - - - -
11/04:30pm 22.6 SSE 17 23 1016.4 - 0.0 - - 10 - - - -
11/04:00pm 22.4 SSE 17 21 1016.3 - 0.0 - - 10 - - - -
11/03:30pm 22.7 SSE 16 20 1016.4 - 0.0 - - 10 - - - -
11/03:00pm 23.1 SSE 16 21 1016.5 - 0.0 - Mostly clear 10 - - - -
11/02:30pm 22.6 SSE 17 21 1016.7 - 0.0 - - 10 - - - -
11/02:00pm 23.3 S 17 21 1016.8 - 0.0 - - 10 - - - -
11/01:30pm 22.6 S 16 20 1016.9 - 0.0 - Partly cloudy 10 - - - -
11/01:00pm 22.8 S 15 20 1016.9 - 0.0 - - 10 - - - -
11/12:30pm 22.7 S 15 19 1017.0 - 0.0 - - 10 - - - -
11/12:00pm 22.3 SE 10 15 1017.0 - 0.0 - Mostly clear 10 - - - -
11/11:30am 22.5 SSE 9 14 1017.1 - 0.0 - Partly cloudy 10 - - - -
11/11:00am 22.2 SSE 9 14 1017.6 - 0.0 - Partly cloudy 10 - - - -
11/10:30am 20.2 SSE 10 14 1017.7 - 0.0 - Partly cloudy 10 - - - -
11/10:00am 21.0 SE 10 12 1018.3 - 0.0 - Partly cloudy 10 - - - -
11/09:30am 19.4 SE 7 10 1018.2 - 0.0 - Partly cloudy 10 - - - -
11/09:00am 16.7 ESE 4 6 1018.0 - 0.0 - Cloudy 10 - - - -
11/08:30am 15.5 E 3 4 1017.7 - 0.0 - Partly cloudy 10 - - - -
11/08:00am 14.3 CALM 0 0 1017.5 - 0.0 - - 10 - - - -
11/07:30am 11.5 CALM 0 0 1017.3 - 0.0 - Partly cloudy 8 - - - -
11/07:27am 11.1 CALM 0 0 1017.2 - 0.0 - Partly cloudy 7 - - - -
11/07:00am 9.8 CALM 0 0 1017.1 - 0.0 - - 2 - - - -
11/06:58am 10.2 CALM 0 0 1017.0 - 0.0 - - 4 - - - -
11/06:43am 9.6 CALM 0 0 1016.9 - 0.0 - - 9 - - - -
11/06:30am 10.0 CALM 0 0 1016.8 - 0.0 - - 0.5 - - - -
11/06:00am 10.6 CALM 0 0 1016.5 - 0.0 - Mostly clear 0.2 - - - -
11/05:51am 10.5 CALM 0 0 1016.6 - 0.0 - Partly cloudy 4 - - - -
11/05:32am 9.7 CALM 0 0 1016.6 - 0.0 - - 10 - - - -
11/05:30am 9.9 CALM 0 0 1016.5 - 0.0 - - 10 - - - -
11/05:00am 10.8 CALM 0 0 1016.2 - 0.0 - - 7 - - - -
11/04:30am 11.3 CALM 0 0 1016.1 - 0.0 - - 2 - - - -
11/04:00am 11.1 CALM 0 0 1016.1 - 0.0 - - 0.3 - - - -
11/03:42am 11.1 CALM 0 0 1016.1 - 0.0 - - 5 - - - -
11/03:30am 11.0 CALM 0 0 1016.1 - 0.0 - - 10 - - - -
11/03:00am 11.2 CALM 0 0 1016.2 - 0.0 - Mostly clear 10 - - - -
11/02:30am 11.1 CALM 0 0 1016.5 - 0.0 - - 10 - - - -
11/02:00am 11.6 S 4 5 1016.6 - 0.0 - Partly cloudy 10 - - - -
11/01:30am 12.1 CALM 0 0 1016.9 - 0.0 - Partly cloudy 10 - - - -
11/01:00am 12.2 CALM 0 0 1017.0 - 0.0 - Partly cloudy 10 - - - -
11/12:30am 12.2 CALM 0 0 1017.0 - 0.0 - - 10 - - - -
11/12:00am 13.0 CALM 0 0 1017.1 - 0.0 - - 10 - - - -
 
Date/Time
EDT
Temp

°C
Wind Pressure Rain
since 9am
mm
Weather Cloud Vis
km
Sea
Height
m
Swell
Dir
 
Speed
knots
Gust
knots
hPa Trend Height
m
Period
s
Dir
10/11:30pm 13.8 S 2 3 1017.1 - 0.0 - - 10 - - - -
10/11:00pm 14.3 S 4 4 1017.2 - 0.0 - - 10 - - - -
10/10:30pm 14.3 SSW 7 7 1017.2 - 0.0 - Partly cloudy 10 - - - -

Other Formats:

Comma delimited format used in spreadsheet applications
http://www.bom.gov.au/fwo/IDV60701/IDV60701.94837.axf

JavaScript Object Notation format (JSON) in row-major order
http://www.bom.gov.au/fwo/IDV60701/IDV60701.94837.json